sensor_id;sensor_type;location;lat;lon;timestamp;P1;durP1;ratioP1;P2;durP2;ratioP2
22883;SDS011;13386;24.786;110.488;2023-07-20T00:02:15;9.88;;;2.72;;
22883;SDS011;13386;24.786;110.488;2023-07-20T00:04:45;5.65;;;2.30;;
22883;SDS011;13386;24.786;110.488;2023-07-20T00:07:15;8.32;;;2.55;;
22883;SDS011;13386;24.786;110.488;2023-07-20T00:09:45;6.68;;;2.70;;
22883;SDS011;13386;24.786;110.488;2023-07-20T00:12:17;8.60;;;2.67;;
22883;SDS011;13386;24.786;110.488;2023-07-20T00:14:47;7.93;;;2.70;;
22883;SDS011;13386;24.786;110.488;2023-07-20T00:17:20;7.00;;;2.30;;
22883;SDS011;13386;24.786;110.488;2023-07-20T00:19:50;6.72;;;2.90;;
22883;SDS011;13386;24.786;110.488;2023-07-20T00:22:20;5.82;;;2.70;;
22883;SDS011;13386;24.786;110.488;2023-07-20T00:24:50;9.55;;;3.40;;
22883;SDS011;13386;24.786;110.488;2023-07-20T00:27:23;8.38;;;3.00;;
22883;SDS011;13386;24.786;110.488;2023-07-20T00:29:53;11.55;;;3.70;;
22883;SDS011;13386;24.786;110.488;2023-07-20T00:32:23;11.00;;;3.47;;
22883;SDS011;13386;24.786;110.488;2023-07-20T00:34:53;10.45;;;3.58;;
22883;SDS011;13386;24.786;110.488;2023-07-20T00:37:23;8.93;;;4.13;;
22883;SDS011;13386;24.786;110.488;2023-07-20T00:39:53;7.68;;;3.40;;
22883;SDS011;13386;24.786;110.488;2023-07-20T00:42:27;9.27;;;4.03;;
22883;SDS011;13386;24.786;110.488;2023-07-20T00:44:57;7.40;;;3.60;;
22883;SDS011;13386;24.786;110.488;2023-07-20T00:47:26;8.23;;;3.55;;
22883;SDS011;13386;24.786;110.488;2023-07-20T00:49:56;10.80;;;3.70;;
22883;SDS011;13386;24.786;110.488;2023-07-20T00:52:26;11.57;;;3.85;;
22883;SDS011;13386;24.786;110.488;2023-07-20T00:54:57;8.93;;;3.90;;
22883;SDS011;13386;24.786;110.488;2023-07-20T00:57:32;10.43;;;3.85;;
22883;SDS011;13386;24.786;110.488;2023-07-20T01:00:02;11.02;;;3.90;;
22883;SDS011;13386;24.786;110.488;2023-07-20T01:02:33;8.35;;;3.72;;
22883;SDS011;13386;24.786;110.488;2023-07-20T01:05:03;10.85;;;3.53;;
22883;SDS011;13386;24.786;110.488;2023-07-20T01:07:35;8.35;;;3.78;;
22883;SDS011;13386;24.786;110.488;2023-07-20T01:10:08;12.85;;;3.97;;
22883;SDS011;13386;24.786;110.488;2023-07-20T01:12:43;6.97;;;3.33;;
22883;SDS011;13386;24.786;110.488;2023-07-20T01:15:17;10.57;;;3.88;;
22883;SDS011;13386;24.786;110.488;2023-07-20T01:17:47;9.38;;;3.40;;
22883;SDS011;13386;24.786;110.488;2023-07-20T01:20:19;7.65;;;3.45;;
22883;SDS011;13386;24.786;110.488;2023-07-20T01:23:04;8.60;;;3.47;;
22883;SDS011;13386;24.786;110.488;2023-07-20T01:25:55;8.90;;;3.60;;
22883;SDS011;13386;24.786;110.488;2023-07-20T01:28:37;11.00;;;3.88;;
22883;SDS011;13386;24.786;110.488;2023-07-20T01:31:15;27.58;;;5.32;;
22883;SDS011;13386;24.786;110.488;2023-07-20T01:33:45;11.25;;;3.67;;
22883;SDS011;13386;24.786;110.488;2023-07-20T01:36:16;17.13;;;3.78;;
22883;SDS011;13386;24.786;110.488;2023-07-20T01:38:47;11.27;;;3.05;;
22883;SDS011;13386;24.786;110.488;2023-07-20T01:41:18;8.70;;;3.13;;
22883;SDS011;13386;24.786;110.488;2023-07-20T01:43:49;11.25;;;3.53;;
22883;SDS011;13386;24.786;110.488;2023-07-20T01:46:21;8.93;;;3.78;;
22883;SDS011;13386;24.786;110.488;2023-07-20T01:48:51;9.10;;;3.28;;
22883;SDS011;13386;24.786;110.488;2023-07-20T01:51:22;6.50;;;3.08;;
22883;SDS011;13386;24.786;110.488;2023-07-20T01:53:57;9.70;;;2.90;;
22883;SDS011;13386;24.786;110.488;2023-07-20T01:56:27;7.45;;;3.10;;
22883;SDS011;13386;24.786;110.488;2023-07-20T01:58:57;9.35;;;3.47;;
22883;SDS011;13386;24.786;110.488;2023-07-20T02:01:29;10.73;;;3.20;;
22883;SDS011;13386;24.786;110.488;2023-07-20T02:04:00;13.05;;;3.25;;
22883;SDS011;13386;24.786;110.488;2023-07-20T02:06:31;7.35;;;3.42;;
22883;SDS011;13386;24.786;110.488;2023-07-20T02:09:02;10.93;;;3.47;;
22883;SDS011;13386;24.786;110.488;2023-07-20T02:11:32;8.77;;;3.80;;
22883;SDS011;13386;24.786;110.488;2023-07-20T02:14:02;6.47;;;3.17;;
22883;SDS011;13386;24.786;110.488;2023-07-20T02:16:34;8.93;;;3.50;;
22883;SDS011;13386;24.786;110.488;2023-07-20T02:19:04;9.98;;;3.30;;
22883;SDS011;13386;24.786;110.488;2023-07-20T02:21:34;9.73;;;3.15;;
22883;SDS011;13386;24.786;110.488;2023-07-20T02:24:06;8.27;;;3.22;;
22883;SDS011;13386;24.786;110.488;2023-07-20T02:26:36;9.40;;;2.95;;
22883;SDS011;13386;24.786;110.488;2023-07-20T02:29:07;7.38;;;3.20;;
22883;SDS011;13386;24.786;110.488;2023-07-20T02:31:40;10.75;;;3.38;;
22883;SDS011;13386;24.786;110.488;2023-07-20T02:34:11;10.82;;;2.95;;
22883;SDS011;13386;24.786;110.488;2023-07-20T02:36:41;5.72;;;2.85;;
22883;SDS011;13386;24.786;110.488;2023-07-20T02:39:13;10.13;;;2.70;;
22883;SDS011;13386;24.786;110.488;2023-07-20T02:41:44;6.97;;;2.75;;
22883;SDS011;13386;24.786;110.488;2023-07-20T02:44:14;8.38;;;2.80;;
22883;SDS011;13386;24.786;110.488;2023-07-20T02:46:48;9.32;;;2.88;;
22883;SDS011;13386;24.786;110.488;2023-07-20T02:49:18;7.90;;;2.78;;
22883;SDS011;13386;24.786;110.488;2023-07-20T02:51:49;8.60;;;3.03;;
22883;SDS011;13386;24.786;110.488;2023-07-20T02:54:19;9.00;;;3.13;;
22883;SDS011;13386;24.786;110.488;2023-07-20T02:56:50;6.03;;;2.42;;
22883;SDS011;13386;24.786;110.488;2023-07-20T02:59:20;11.40;;;2.70;;
22883;SDS011;13386;24.786;110.488;2023-07-20T03:01:52;6.88;;;2.85;;
22883;SDS011;13386;24.786;110.488;2023-07-20T03:04:23;13.13;;;3.60;;
22883;SDS011;13386;24.786;110.488;2023-07-20T03:06:53;7.68;;;2.28;;
22883;SDS011;13386;24.786;110.488;2023-07-20T03:09:30;5.85;;;2.35;;
22883;SDS011;13386;24.786;110.488;2023-07-20T03:12:01;6.70;;;2.40;;
22883;SDS011;13386;24.786;110.488;2023-07-20T03:14:32;12.63;;;2.70;;
22883;SDS011;13386;24.786;110.488;2023-07-20T03:17:04;6.95;;;2.35;;
22883;SDS011;13386;24.786;110.488;2023-07-20T03:19:38;4.38;;;2.17;;
22883;SDS011;13386;24.786;110.488;2023-07-20T03:22:08;7.05;;;2.58;;
22883;SDS011;13386;24.786;110.488;2023-07-20T03:24:40;9.65;;;2.70;;
22883;SDS011;13386;24.786;110.488;2023-07-20T03:27:10;3.85;;;2.05;;
22883;SDS011;13386;24.786;110.488;2023-07-20T03:29:40;6.75;;;2.33;;
22883;SDS011;13386;24.786;110.488;2023-07-20T03:32:13;8.55;;;2.40;;
22883;SDS011;13386;24.786;110.488;2023-07-20T03:34:43;7.38;;;2.30;;
22883;SDS011;13386;24.786;110.488;2023-07-20T03:37:15;4.60;;;2.10;;
22883;SDS011;13386;24.786;110.488;2023-07-20T03:39:46;4.55;;;2.10;;
22883;SDS011;13386;24.786;110.488;2023-07-20T03:42:18;10.27;;;2.22;;
22883;SDS011;13386;24.786;110.488;2023-07-20T03:44:49;5.53;;;2.17;;
22883;SDS011;13386;24.786;110.488;2023-07-20T03:47:21;9.18;;;2.30;;
22883;SDS011;13386;24.786;110.488;2023-07-20T03:49:56;6.88;;;2.22;;
22883;SDS011;13386;24.786;110.488;2023-07-20T03:52:28;8.95;;;2.17;;
22883;SDS011;13386;24.786;110.488;2023-07-20T03:54:58;9.20;;;2.40;;
22883;SDS011;13386;24.786;110.488;2023-07-20T03:57:28;7.07;;;2.05;;
22883;SDS011;13386;24.786;110.488;2023-07-20T04:00:01;6.57;;;2.08;;
22883;SDS011;13386;24.786;110.488;2023-07-20T04:02:41;5.68;;;2.22;;
22883;SDS011;13386;24.786;110.488;2023-07-20T04:05:11;6.95;;;2.40;;
22883;SDS011;13386;24.786;110.488;2023-07-20T04:07:41;4.78;;;2.03;;
22883;SDS011;13386;24.786;110.488;2023-07-20T04:10:23;6.45;;;1.92;;
22883;SDS011;13386;24.786;110.488;2023-07-20T04:12:55;8.10;;;2.20;;
22883;SDS011;13386;24.786;110.488;2023-07-20T04:15:25;4.35;;;2.00;;
22883;SDS011;13386;24.786;110.488;2023-07-20T04:17:57;4.25;;;1.92;;
22883;SDS011;13386;24.786;110.488;2023-07-20T04:20:28;7.88;;;2.20;;
22883;SDS011;13386;24.786;110.488;2023-07-20T04:22:58;8.80;;;2.20;;
22883;SDS011;13386;24.786;110.488;2023-07-20T04:25:30;8.07;;;1.92;;
22883;SDS011;13386;24.786;110.488;2023-07-20T04:28:05;6.43;;;2.08;;
22883;SDS011;13386;24.786;110.488;2023-07-20T04:30:50;4.65;;;1.90;;
22883;SDS011;13386;24.786;110.488;2023-07-20T04:33:24;6.72;;;1.98;;
22883;SDS011;13386;24.786;110.488;2023-07-20T04:35:55;5.97;;;2.00;;
22883;SDS011;13386;24.786;110.488;2023-07-20T04:38:33;7.45;;;1.75;;
22883;SDS011;13386;24.786;110.488;2023-07-20T04:41:18;4.85;;;1.60;;
22883;SDS011;13386;24.786;110.488;2023-07-20T04:43:51;5.30;;;1.50;;
22883;SDS011;13386;24.786;110.488;2023-07-20T04:46:28;7.03;;;1.98;;
22883;SDS011;13386;24.786;110.488;2023-07-20T04:49:04;6.05;;;1.70;;
22883;SDS011;13386;24.786;110.488;2023-07-20T04:51:38;6.28;;;1.70;;
22883;SDS011;13386;24.786;110.488;2023-07-20T04:54:09;7.00;;;1.80;;
22883;SDS011;13386;24.786;110.488;2023-07-20T04:56:46;5.00;;;1.80;;
22883;SDS011;13386;24.786;110.488;2023-07-20T04:59:20;4.40;;;1.40;;
22883;SDS011;13386;24.786;110.488;2023-07-20T05:01:50;6.35;;;1.90;;
22883;SDS011;13386;24.786;110.488;2023-07-20T05:04:23;7.07;;;2.13;;
22883;SDS011;13386;24.786;110.488;2023-07-20T05:06:54;8.88;;;1.90;;
22883;SDS011;13386;24.786;110.488;2023-07-20T05:09:31;6.07;;;1.70;;
22883;SDS011;13386;24.786;110.488;2023-07-20T05:12:03;4.38;;;1.55;;
22883;SDS011;13386;24.786;110.488;2023-07-20T05:14:34;7.80;;;1.88;;
22883;SDS011;13386;24.786;110.488;2023-07-20T05:17:05;4.70;;;1.60;;
22883;SDS011;13386;24.786;110.488;2023-07-20T05:19:39;9.00;;;2.10;;
22883;SDS011;13386;24.786;110.488;2023-07-20T05:22:16;10.30;;;2.67;;
22883;SDS011;13386;24.786;110.488;2023-07-20T05:24:47;10.07;;;2.20;;
22883;SDS011;13386;24.786;110.488;2023-07-20T05:27:18;5.00;;;1.73;;
22883;SDS011;13386;24.786;110.488;2023-07-20T05:29:48;6.30;;;1.75;;
22883;SDS011;13386;24.786;110.488;2023-07-20T05:32:20;8.15;;;2.08;;
22883;SDS011;13386;24.786;110.488;2023-07-20T05:34:54;5.55;;;2.00;;
22883;SDS011;13386;24.786;110.488;2023-07-20T05:37:24;10.77;;;2.00;;
22883;SDS011;13386;24.786;110.488;2023-07-20T05:40:00;9.40;;;1.83;;
22883;SDS011;13386;24.786;110.488;2023-07-20T05:42:32;8.00;;;1.85;;
22883;SDS011;13386;24.786;110.488;2023-07-20T05:45:06;6.22;;;1.60;;
22883;SDS011;13386;24.786;110.488;2023-07-20T05:47:36;4.40;;;1.35;;
22883;SDS011;13386;24.786;110.488;2023-07-20T05:50:08;9.10;;;2.00;;
22883;SDS011;13386;24.786;110.488;2023-07-20T05:52:41;8.80;;;1.90;;
22883;SDS011;13386;24.786;110.488;2023-07-20T05:55:11;6.55;;;1.55;;
22883;SDS011;13386;24.786;110.488;2023-07-20T05:57:43;5.05;;;1.40;;
22883;SDS011;13386;24.786;110.488;2023-07-20T06:00:16;4.55;;;1.70;;
22883;SDS011;13386;24.786;110.488;2023-07-20T06:02:53;6.03;;;1.30;;
22883;SDS011;13386;24.786;110.488;2023-07-20T06:05:25;7.55;;;1.70;;
22883;SDS011;13386;24.786;110.488;2023-07-20T06:07:58;5.88;;;1.65;;
22883;SDS011;13386;24.786;110.488;2023-07-20T06:10:29;4.25;;;1.70;;
22883;SDS011;13386;24.786;110.488;2023-07-20T06:13:00;6.22;;;1.70;;
22883;SDS011;13386;24.786;110.488;2023-07-20T06:15:38;8.48;;;1.52;;
22883;SDS011;13386;24.786;110.488;2023-07-20T06:18:11;6.80;;;1.60;;
22883;SDS011;13386;24.786;110.488;2023-07-20T06:20:45;5.13;;;1.80;;
22883;SDS011;13386;24.786;110.488;2023-07-20T06:23:18;5.30;;;2.00;;
22883;SDS011;13386;24.786;110.488;2023-07-20T06:25:49;5.43;;;1.60;;
22883;SDS011;13386;24.786;110.488;2023-07-20T06:28:19;5.15;;;1.42;;
22883;SDS011;13386;24.786;110.488;2023-07-20T06:30:50;5.53;;;1.58;;
22883;SDS011;13386;24.786;110.488;2023-07-20T06:33:21;5.05;;;1.65;;
22883;SDS011;13386;24.786;110.488;2023-07-20T06:35:54;6.43;;;1.65;;
22883;SDS011;13386;24.786;110.488;2023-07-20T06:38:28;5.60;;;1.85;;
22883;SDS011;13386;24.786;110.488;2023-07-20T06:43:35;5.82;;;1.80;;
22883;SDS011;13386;24.786;110.488;2023-07-20T06:46:08;3.83;;;1.80;;
22883;SDS011;13386;24.786;110.488;2023-07-20T06:48:41;8.68;;;2.05;;
22883;SDS011;13386;24.786;110.488;2023-07-20T06:51:20;3.85;;;1.50;;
22883;SDS011;13386;24.786;110.488;2023-07-20T06:53:50;6.00;;;1.83;;
22883;SDS011;13386;24.786;110.488;2023-07-20T06:56:21;6.00;;;1.83;;
22883;SDS011;13386;24.786;110.488;2023-07-20T06:58:52;3.75;;;1.50;;
22883;SDS011;13386;24.786;110.488;2023-07-20T07:01:26;4.95;;;1.40;;
22883;SDS011;13386;24.786;110.488;2023-07-20T07:03:58;6.05;;;1.77;;
22883;SDS011;13386;24.786;110.488;2023-07-20T07:06:33;9.55;;;2.00;;
22883;SDS011;13386;24.786;110.488;2023-07-20T07:09:06;6.25;;;1.80;;
22883;SDS011;13386;24.786;110.488;2023-07-20T07:11:42;8.80;;;1.80;;
22883;SDS011;13386;24.786;110.488;2023-07-20T07:14:12;7.25;;;2.13;;
22883;SDS011;13386;24.786;110.488;2023-07-20T07:16:43;7.05;;;1.77;;
22883;SDS011;13386;24.786;110.488;2023-07-20T07:19:15;7.80;;;1.58;;
22883;SDS011;13386;24.786;110.488;2023-07-20T07:21:48;7.85;;;1.90;;
22883;SDS011;13386;24.786;110.488;2023-07-20T07:24:18;6.07;;;1.70;;
22883;SDS011;13386;24.786;110.488;2023-07-20T07:26:48;10.10;;;1.80;;
22883;SDS011;13386;24.786;110.488;2023-07-20T07:29:20;8.80;;;1.85;;
22883;SDS011;13386;24.786;110.488;2023-07-20T07:31:53;4.63;;;2.05;;
22883;SDS011;13386;24.786;110.488;2023-07-20T07:34:26;6.95;;;1.92;;
22883;SDS011;13386;24.786;110.488;2023-07-20T07:36:59;6.43;;;2.05;;
22883;SDS011;13386;24.786;110.488;2023-07-20T07:39:30;9.25;;;2.20;;
22883;SDS011;13386;24.786;110.488;2023-07-20T07:42:02;5.95;;;1.67;;
22883;SDS011;13386;24.786;110.488;2023-07-20T07:44:34;5.05;;;1.40;;
22883;SDS011;13386;24.786;110.488;2023-07-20T07:47:08;5.25;;;1.70;;
22883;SDS011;13386;24.786;110.488;2023-07-20T07:49:39;6.55;;;1.40;;
22883;SDS011;13386;24.786;110.488;2023-07-20T07:52:12;5.65;;;1.55;;
22883;SDS011;13386;24.786;110.488;2023-07-20T07:54:48;5.40;;;1.38;;
22883;SDS011;13386;24.786;110.488;2023-07-20T07:59:50;5.90;;;1.25;;
22883;SDS011;13386;24.786;110.488;2023-07-20T08:02:23;3.50;;;1.55;;
22883;SDS011;13386;24.786;110.488;2023-07-20T08:04:53;7.85;;;1.40;;
22883;SDS011;13386;24.786;110.488;2023-07-20T08:07:28;6.65;;;1.50;;
22883;SDS011;13386;24.786;110.488;2023-07-20T08:09:59;6.28;;;1.48;;
22883;SDS011;13386;24.786;110.488;2023-07-20T08:12:29;5.03;;;1.50;;
22883;SDS011;13386;24.786;110.488;2023-07-20T08:15:00;4.20;;;1.50;;
22883;SDS011;13386;24.786;110.488;2023-07-20T08:17:34;4.40;;;1.63;;
22883;SDS011;13386;24.786;110.488;2023-07-20T08:20:10;7.53;;;1.50;;
22883;SDS011;13386;24.786;110.488;2023-07-20T08:22:56;4.50;;;1.45;;
22883;SDS011;13386;24.786;110.488;2023-07-20T08:25:38;8.45;;;2.80;;
22883;SDS011;13386;24.786;110.488;2023-07-20T08:28:14;5.85;;;2.00;;
22883;SDS011;13386;24.786;110.488;2023-07-20T08:30:45;12.25;;;1.77;;
22883;SDS011;13386;24.786;110.488;2023-07-20T08:33:15;5.35;;;1.90;;
22883;SDS011;13386;24.786;110.488;2023-07-20T08:35:48;5.30;;;1.50;;
22883;SDS011;13386;24.786;110.488;2023-07-20T08:38:21;5.43;;;1.73;;
22883;SDS011;13386;24.786;110.488;2023-07-20T08:40:52;6.00;;;1.70;;
22883;SDS011;13386;24.786;110.488;2023-07-20T08:43:23;9.73;;;1.58;;
22883;SDS011;13386;24.786;110.488;2023-07-20T08:45:54;4.55;;;1.60;;
22883;SDS011;13386;24.786;110.488;2023-07-20T08:48:25;4.57;;;1.63;;
22883;SDS011;13386;24.786;110.488;2023-07-20T08:50:57;5.53;;;1.70;;
22883;SDS011;13386;24.786;110.488;2023-07-20T08:53:32;9.55;;;2.20;;
22883;SDS011;13386;24.786;110.488;2023-07-20T08:56:02;7.78;;;1.95;;
22883;SDS011;13386;24.786;110.488;2023-07-20T08:58:35;4.18;;;1.50;;
22883;SDS011;13386;24.786;110.488;2023-07-20T09:01:08;7.72;;;1.88;;
22883;SDS011;13386;24.786;110.488;2023-07-20T09:03:41;7.82;;;1.60;;
22883;SDS011;13386;24.786;110.488;2023-07-20T09:06:14;4.00;;;1.50;;
22883;SDS011;13386;24.786;110.488;2023-07-20T09:08:49;5.38;;;1.48;;
22883;SDS011;13386;24.786;110.488;2023-07-20T09:11:19;4.00;;;1.60;;
22883;SDS011;13386;24.786;110.488;2023-07-20T09:14:02;6.20;;;1.63;;
22883;SDS011;13386;24.786;110.488;2023-07-20T09:16:34;4.38;;;1.45;;
22883;SDS011;13386;24.786;110.488;2023-07-20T09:19:17;3.55;;;1.42;;
22883;SDS011;13386;24.786;110.488;2023-07-20T09:21:48;5.55;;;1.30;;
22883;SDS011;13386;24.786;110.488;2023-07-20T09:24:22;4.20;;;1.35;;
22883;SDS011;13386;24.786;110.488;2023-07-20T09:26:54;3.40;;;1.17;;
22883;SDS011;13386;24.786;110.488;2023-07-20T09:29:24;3.60;;;1.05;;
22883;SDS011;13386;24.786;110.488;2023-07-20T09:31:59;5.88;;;1.20;;
22883;SDS011;13386;24.786;110.488;2023-07-20T09:34:30;6.03;;;1.40;;
22883;SDS011;13386;24.786;110.488;2023-07-20T09:37:00;3.08;;;1.20;;
22883;SDS011;13386;24.786;110.488;2023-07-20T09:39:40;4.38;;;1.35;;
22883;SDS011;13386;24.786;110.488;2023-07-20T09:42:12;6.72;;;1.50;;
22883;SDS011;13386;24.786;110.488;2023-07-20T09:44:43;4.93;;;1.83;;
22883;SDS011;13386;24.786;110.488;2023-07-20T09:47:14;6.60;;;1.83;;
22883;SDS011;13386;24.786;110.488;2023-07-20T09:49:57;5.93;;;1.73;;
22883;SDS011;13386;24.786;110.488;2023-07-20T09:55:00;7.15;;;1.70;;
22883;SDS011;13386;24.786;110.488;2023-07-20T09:57:31;6.88;;;1.60;;
22883;SDS011;13386;24.786;110.488;2023-07-20T10:00:04;7.88;;;1.92;;
22883;SDS011;13386;24.786;110.488;2023-07-20T10:02:43;11.73;;;2.60;;
22883;SDS011;13386;24.786;110.488;2023-07-20T10:05:14;7.30;;;2.20;;
22883;SDS011;13386;24.786;110.488;2023-07-20T10:07:47;6.57;;;2.22;;
22883;SDS011;13386;24.786;110.488;2023-07-20T10:10:21;16.20;;;2.47;;
22883;SDS011;13386;24.786;110.488;2023-07-20T10:12:56;6.35;;;1.65;;
22883;SDS011;13386;24.786;110.488;2023-07-20T10:15:28;4.72;;;1.52;;
22883;SDS011;13386;24.786;110.488;2023-07-20T10:18:02;8.55;;;1.50;;
22883;SDS011;13386;24.786;110.488;2023-07-20T10:20:35;8.77;;;1.38;;
22883;SDS011;13386;24.786;110.488;2023-07-20T10:23:08;4.45;;;1.38;;
22883;SDS011;13386;24.786;110.488;2023-07-20T10:25:40;2.72;;;1.23;;
22883;SDS011;13386;24.786;110.488;2023-07-20T10:28:14;5.85;;;1.90;;
22883;SDS011;13386;24.786;110.488;2023-07-20T10:30:45;25.30;;;3.47;;
22883;SDS011;13386;24.786;110.488;2023-07-20T10:33:15;14.65;;;1.98;;
22883;SDS011;13386;24.786;110.488;2023-07-20T10:35:53;6.32;;;2.10;;
22883;SDS011;13386;24.786;110.488;2023-07-20T10:38:39;46.85;;;9.27;;
22883;SDS011;13386;24.786;110.488;2023-07-20T10:41:20;71.35;;;9.00;;
22883;SDS011;13386;24.786;110.488;2023-07-20T10:43:55;32.05;;;6.50;;
22883;SDS011;13386;24.786;110.488;2023-07-20T10:46:35;7.85;;;1.92;;
22883;SDS011;13386;24.786;110.488;2023-07-20T10:49:12;11.00;;;2.20;;
22883;SDS011;13386;24.786;110.488;2023-07-20T10:51:43;5.13;;;1.67;;
22883;SDS011;13386;24.786;110.488;2023-07-20T10:57:21;11.40;;;2.55;;
22883;SDS011;13386;24.786;110.488;2023-07-20T10:59:52;8.88;;;2.00;;
22883;SDS011;13386;24.786;110.488;2023-07-20T11:02:44;14.35;;;2.40;;
22883;SDS011;13386;24.786;110.488;2023-07-20T11:05:35;6.53;;;1.60;;
22883;SDS011;13386;24.786;110.488;2023-07-20T11:08:08;7.32;;;1.98;;
22883;SDS011;13386;24.786;110.488;2023-07-20T11:10:41;8.27;;;2.10;;
22883;SDS011;13386;24.786;110.488;2023-07-20T11:13:20;10.40;;;2.03;;
22883;SDS011;13386;24.786;110.488;2023-07-20T11:16:04;10.27;;;1.90;;
22883;SDS011;13386;24.786;110.488;2023-07-20T11:18:34;9.75;;;2.20;;
22883;SDS011;13386;24.786;110.488;2023-07-20T11:21:09;7.22;;;2.05;;
22883;SDS011;13386;24.786;110.488;2023-07-20T11:23:40;7.23;;;2.27;;
22883;SDS011;13386;24.786;110.488;2023-07-20T11:26:16;7.28;;;1.80;;
22883;SDS011;13386;24.786;110.488;2023-07-20T11:28:51;9.20;;;1.98;;
22883;SDS011;13386;24.786;110.488;2023-07-20T11:31:21;4.90;;;1.70;;
22883;SDS011;13386;24.786;110.488;2023-07-20T11:33:51;7.30;;;1.75;;
22883;SDS011;13386;24.786;110.488;2023-07-20T11:36:24;4.60;;;1.77;;
22883;SDS011;13386;24.786;110.488;2023-07-20T11:38:58;5.05;;;1.65;;
22883;SDS011;13386;24.786;110.488;2023-07-20T11:41:29;6.68;;;1.58;;
22883;SDS011;13386;24.786;110.488;2023-07-20T11:44:01;7.25;;;1.70;;
22883;SDS011;13386;24.786;110.488;2023-07-20T11:46:33;7.80;;;2.10;;
22883;SDS011;13386;24.786;110.488;2023-07-20T11:49:04;8.75;;;1.80;;
22883;SDS011;13386;24.786;110.488;2023-07-20T11:51:34;6.00;;;1.60;;
22883;SDS011;13386;24.786;110.488;2023-07-20T11:54:07;8.18;;;2.47;;
22883;SDS011;13386;24.786;110.488;2023-07-20T11:56:41;9.20;;;2.58;;
22883;SDS011;13386;24.786;110.488;2023-07-20T11:59:20;12.30;;;2.38;;
22883;SDS011;13386;24.786;110.488;2023-07-20T12:01:50;13.20;;;3.05;;
22883;SDS011;13386;24.786;110.488;2023-07-20T12:04:22;8.98;;;3.00;;
22883;SDS011;13386;24.786;110.488;2023-07-20T12:06:53;11.32;;;2.88;;
22883;SDS011;13386;24.786;110.488;2023-07-20T12:09:24;11.20;;;3.60;;
22883;SDS011;13386;24.786;110.488;2023-07-20T12:11:55;14.52;;;3.50;;
22883;SDS011;13386;24.786;110.488;2023-07-20T12:14:32;16.70;;;3.30;;
22883;SDS011;13386;24.786;110.488;2023-07-20T12:17:04;12.80;;;3.60;;
22883;SDS011;13386;24.786;110.488;2023-07-20T12:19:38;10.95;;;3.50;;
22883;SDS011;13386;24.786;110.488;2023-07-20T12:22:08;9.10;;;2.78;;
22883;SDS011;13386;24.786;110.488;2023-07-20T12:24:41;9.23;;;2.75;;
22883;SDS011;13386;24.786;110.488;2023-07-20T12:27:40;11.48;;;3.47;;
22883;SDS011;13386;24.786;110.488;2023-07-20T12:30:14;8.45;;;3.20;;
22883;SDS011;13386;24.786;110.488;2023-07-20T12:32:46;9.65;;;2.60;;
22883;SDS011;13386;24.786;110.488;2023-07-20T12:35:18;4.88;;;2.00;;
22883;SDS011;13386;24.786;110.488;2023-07-20T12:37:49;8.57;;;2.42;;
22883;SDS011;13386;24.786;110.488;2023-07-20T12:40:20;6.90;;;2.40;;
22883;SDS011;13386;24.786;110.488;2023-07-20T12:42:56;5.68;;;2.00;;
22883;SDS011;13386;24.786;110.488;2023-07-20T12:45:32;5.75;;;2.10;;
22883;SDS011;13386;24.786;110.488;2023-07-20T12:48:04;13.48;;;2.50;;
22883;SDS011;13386;24.786;110.488;2023-07-20T12:50:37;5.15;;;2.10;;
22883;SDS011;13386;24.786;110.488;2023-07-20T12:53:07;7.07;;;2.47;;
22883;SDS011;13386;24.786;110.488;2023-07-20T12:55:38;9.75;;;2.63;;
22883;SDS011;13386;24.786;110.488;2023-07-20T12:58:11;7.85;;;2.38;;
22883;SDS011;13386;24.786;110.488;2023-07-20T13:00:44;5.93;;;2.10;;
22883;SDS011;13386;24.786;110.488;2023-07-20T13:03:17;7.93;;;2.35;;
22883;SDS011;13386;24.786;110.488;2023-07-20T13:05:48;5.40;;;2.17;;
22883;SDS011;13386;24.786;110.488;2023-07-20T13:08:20;5.63;;;2.03;;
22883;SDS011;13386;24.786;110.488;2023-07-20T13:10:52;7.10;;;2.10;;
22883;SDS011;13386;24.786;110.488;2023-07-20T13:13:22;7.00;;;2.00;;
22883;SDS011;13386;24.786;110.488;2023-07-20T13:15:59;11.07;;;2.22;;
22883;SDS011;13386;24.786;110.488;2023-07-20T13:18:30;7.85;;;2.28;;
22883;SDS011;13386;24.786;110.488;2023-07-20T13:21:03;4.50;;;1.80;;
22883;SDS011;13386;24.786;110.488;2023-07-20T13:23:38;6.50;;;2.33;;
22883;SDS011;13386;24.786;110.488;2023-07-20T13:26:08;7.18;;;2.45;;
22883;SDS011;13386;24.786;110.488;2023-07-20T13:28:39;5.82;;;1.58;;
22883;SDS011;13386;24.786;110.488;2023-07-20T13:31:12;5.00;;;1.60;;
22883;SDS011;13386;24.786;110.488;2023-07-20T13:33:46;6.65;;;1.80;;
22883;SDS011;13386;24.786;110.488;2023-07-20T13:36:20;4.20;;;1.90;;
22883;SDS011;13386;24.786;110.488;2023-07-20T13:38:50;12.68;;;2.10;;
22883;SDS011;13386;24.786;110.488;2023-07-20T13:41:28;3.38;;;1.80;;
22883;SDS011;13386;24.786;110.488;2023-07-20T13:44:06;6.43;;;1.45;;
22883;SDS011;13386;24.786;110.488;2023-07-20T13:46:38;5.50;;;1.80;;
22883;SDS011;13386;24.786;110.488;2023-07-20T13:49:08;6.97;;;1.80;;
22883;SDS011;13386;24.786;110.488;2023-07-20T13:51:45;5.28;;;2.30;;
22883;SDS011;13386;24.786;110.488;2023-07-20T13:54:18;7.05;;;2.40;;
22883;SDS011;13386;24.786;110.488;2023-07-20T13:56:48;9.00;;;2.30;;
22883;SDS011;13386;24.786;110.488;2023-07-20T13:59:20;7.80;;;2.45;;
22883;SDS011;13386;24.786;110.488;2023-07-20T14:01:55;7.95;;;2.10;;
22883;SDS011;13386;24.786;110.488;2023-07-20T14:04:27;5.05;;;1.90;;
22883;SDS011;13386;24.786;110.488;2023-07-20T14:06:59;5.68;;;1.65;;
22883;SDS011;13386;24.786;110.488;2023-07-20T14:09:36;7.05;;;1.70;;
22883;SDS011;13386;24.786;110.488;2023-07-20T14:12:10;6.72;;;1.77;;
22883;SDS011;13386;24.786;110.488;2023-07-20T14:14:41;10.13;;;2.45;;
22883;SDS011;13386;24.786;110.488;2023-07-20T14:17:13;7.45;;;1.95;;
22883;SDS011;13386;24.786;110.488;2023-07-20T14:19:44;4.82;;;1.70;;
22883;SDS011;13386;24.786;110.488;2023-07-20T14:22:14;5.60;;;1.80;;
22883;SDS011;13386;24.786;110.488;2023-07-20T14:24:47;5.88;;;1.70;;
22883;SDS011;13386;24.786;110.488;2023-07-20T14:27:18;4.45;;;1.83;;
22883;SDS011;13386;24.786;110.488;2023-07-20T14:29:51;3.13;;;1.13;;
22883;SDS011;13386;24.786;110.488;2023-07-20T14:32:26;4.85;;;1.30;;
22883;SDS011;13386;24.786;110.488;2023-07-20T14:34:58;2.55;;;1.17;;
22883;SDS011;13386;24.786;110.488;2023-07-20T14:37:29;3.95;;;1.30;;
22883;SDS011;13386;24.786;110.488;2023-07-20T14:40:08;3.20;;;1.30;;
22883;SDS011;13386;24.786;110.488;2023-07-20T14:42:40;5.60;;;1.40;;
22883;SDS011;13386;24.786;110.488;2023-07-20T14:45:12;5.85;;;1.38;;
22883;SDS011;13386;24.786;110.488;2023-07-20T14:47:45;5.88;;;1.63;;
22883;SDS011;13386;24.786;110.488;2023-07-20T14:50:23;4.85;;;2.20;;
22883;SDS011;13386;24.786;110.488;2023-07-20T14:52:59;4.72;;;2.20;;
22883;SDS011;13386;24.786;110.488;2023-07-20T14:55:31;9.27;;;2.10;;
22883;SDS011;13386;24.786;110.488;2023-07-20T15:00:35;5.55;;;2.22;;
22883;SDS011;13386;24.786;110.488;2023-07-20T15:03:09;5.13;;;1.70;;
22883;SDS011;13386;24.786;110.488;2023-07-20T15:05:41;6.32;;;2.10;;